| |
Missouri Department of Transportation

Social Media Facebook Twitter Flickr Instagram YouTube RSS

Current METAR Information for All MoDOT Locations 
AWOS Home - General Info for all Airports
Current AWOS for all Airports - Current METAR for all Airports
Glossary - Disclaimer - Other Links


Automated Weather Observation System
Date: 08-25-2016
 
Location Current METAR Record
HANNIBAL METAR KHAE 250932Z AUTO 00000KT 10SM RA SCT049 SCT070 SCT075 22/20 A3004 RMK AO2 P0002
HARRISONVILLE METAR KLRY 250946Z AUTO 00000KT 10SM TS CLR 22/22 A3004 RMK AO2 P0007
LEBANON  No current data available
MALDEN  No current data available
MARSHALL METAR KMHL 250943Z AUTO 14004KT 10SM SCT080 BKN100 22/22 A3007 RMK AO2 LTG DSNT SW AND W P0002
MARYVILLE  No current data available
MEXICO  No current data available
MOBERLY  No current data available
NEVADA  No current data available
PIEDMONT  No current data available
SIKESTON  No current data available
SULLIVAN  No current data available
WARSAW METAR KRAW 250938Z AUTO 00000KT 10SM VCTS CLR 20/19 A3005 RMK AO2
About Us
How Do I...
Contact Us
Missouri Department of Transportation
Central Office
105 W. Capitol Avenue
Jefferson City, MO 65102
1-888-ASK-MODOT (275-6636)
1-866-831-6277 (Motor Carrier Services)
Driver's License Offices
horz_bar
| | |
Missouri State Government
© 2013 Missouri Department of Transportation. All Rights Reserved.   Privacy Policy.
 
 
 
 
RSS FeedYoutubeBlogFlickrTwitter Facebook